Time;durP1;ratioP1;P1;durP2;ratioP2;P2;SDS_P1;SDS_P2;PMS_P1;PMS_P2;Temp;Humidity;BMP_temperature;BMP_pressure;BME280_temperature;BME280_humidity;BME280_pressure;Samples;Min_cycle;Max_cycle;Signal;HPM_P1;HPM_P2
2022/04/28 00:00:44;;;;;;;16.60;8.53;;;;;;;5.17;64.77;102456.83;1683577;83;21240;-85
2022/04/28 00:03:12;;;;;;;5.50;2.20;;;;;;;5.26;65.08;102450.08;1686835;83;21214;-85
2022/04/28 00:05:43;;;;;;;3.77;2.22;;;;;;;5.32;65.02;102436.57;1679979;84;21090;-84
2022/04/28 00:08:10;;;;;;;4.67;1.90;;;;;;;5.36;65.06;102438.60;1678063;84;21817;-85
2022/04/28 00:10:37;;;;;;;3.70;1.95;;;;;;;5.41;65.48;102433.33;1682091;84;21080;-85
2022/04/28 00:13:07;;;;;;;3.47;1.80;;;;;;;5.44;65.38;102422.71;1685316;83;21080;-85
2022/04/28 00:15:34;;;;;;;3.05;1.60;;;;;;;5.42;65.36;102406.02;1684473;83;21664;-85
2022/04/28 00:18:01;;;;;;;8.13;2.25;;;;;;;5.39;65.39;102400.98;1666193;84;21070;-85
2022/04/28 00:20:29;;;;;;;5.17;2.30;;;;;;;5.37;65.68;102407.80;1676615;84;21988;-85
2022/04/28 00:22:56;;;;;;;4.80;1.90;;;;;;;5.39;65.88;102417.95;1674321;83;21327;-85
2022/04/28 00:25:23;;;;;;;5.05;2.33;;;;;;;5.41;65.92;102414.64;1686579;83;21232;-85
2022/04/28 00:27:50;;;;;;;4.62;2.62;;;;;;;5.47;66.15;102413.28;1677169;83;21651;-84
2022/04/28 00:30:17;;;;;;;6.05;2.60;;;;;;;5.51;65.91;102423.14;1698428;82;21157;-85
2022/04/28 00:32:44;;;;;;;7.03;2.50;;;;;;;5.53;66.05;102426.77;1698486;82;21788;-85
2022/04/28 00:35:11;;;;;;;6.85;2.65;;;;;;;5.59;66.49;102428.14;1712029;82;21618;-85
2022/04/28 00:37:38;;;;;;;8.05;2.77;;;;;;;5.53;66.79;102398.94;1683738;83;21082;-85
2022/04/28 00:40:07;;;;;;;4.85;2.55;;;;;;;5.68;66.97;102424.36;1673796;83;21090;-85
2022/04/28 00:42:34;;;;;;;7.53;2.42;;;;;;;5.69;67.08;102424.84;1686557;83;21070;-85
2022/04/28 00:45:00;;;;;;;6.17;2.37;;;;;;;5.70;67.29;102430.59;1680931;83;21950;-84
2022/04/28 00:50:38;;;;;;;6.30;2.65;;;;;;;5.71;67.34;102431.13;1679505;83;21153;-85
2022/04/28 00:52:41;;;;;;;7.62;2.70;;;;;;;5.72;67.58;102428.59;1698652;83;21081;-86
2022/04/28 00:55:08;;;;;;;8.25;2.83;;;;;;;5.73;67.74;102425.19;1696763;82;21122;-85
2022/04/28 00:57:37;;;;;;;5.60;3.30;;;;;;;5.73;67.80;102428.22;1664821;83;21828;-86
2022/04/28 01:00:08;;;;;;;13.18;3.67;;;;;;;5.70;67.90;102430.19;1665742;83;21156;-86
2022/04/28 01:02:35;;;;;;;6.40;2.70;;;;;;;5.72;68.14;102427.28;1677510;83;21159;-85
2022/04/28 01:05:09;;;;;;;7.25;2.83;;;;;;;5.75;68.29;102424.00;1687926;83;22180;-85
2022/04/28 01:07:31;;;;;;;7.20;3.08;;;;;;;5.77;68.41;102428.53;1698311;83;21550;-85
2022/04/28 01:09:57;;;;;;;5.10;2.50;;;;;;;5.79;68.37;102423.01;1706827;83;21768;-85
2022/04/28 01:12:24;;;;;;;5.17;2.50;;;;;;;5.79;68.46;102423.01;1672646;83;21139;-84
2022/04/28 01:14:51;;;;;;;6.60;2.85;;;;;;;5.84;68.58;102417.72;1708672;83;21082;-86
2022/04/28 01:17:18;;;;;;;4.55;2.30;;;;;;;5.88;68.71;102421.87;1717115;83;21532;-85
2022/04/28 01:19:45;;;;;;;9.90;2.90;;;;;;;5.91;68.77;102420.76;1707975;83;21357;-85
2022/04/28 01:22:12;;;;;;;5.45;2.50;;;;;;;5.91;68.62;102416.84;1702085;83;21715;-85
2022/04/28 01:24:39;;;;;;;4.72;2.65;;;;;;;5.89;68.63;102404.06;1700022;83;21145;-85
2022/04/28 01:27:05;;;;;;;8.60;2.83;;;;;;;5.92;68.74;102399.06;1703650;83;21465;-85
2022/04/28 01:29:33;;;;;;;6.03;2.50;;;;;;;5.92;68.66;102388.20;1710566;83;21264;-84
2022/04/28 01:32:01;;;;;;;5.47;2.85;;;;;;;5.94;68.79;102397.05;1709553;81;21125;-85
2022/04/28 01:34:28;;;;;;;6.37;2.83;;;;;;;5.94;68.75;102398.36;1689120;83;22866;-85
2022/04/28 01:37:00;;;;;;;8.80;2.65;;;;;;;5.93;68.68;102396.56;1692006;83;21114;-85
2022/04/28 01:39:27;;;;;;;5.50;2.72;;;;;;;5.92;68.58;102394.73;1692008;83;22063;-85
2022/04/28 01:41:54;;;;;;;7.60;2.98;;;;;;;5.92;68.68;102396.45;1713434;83;21070;-85
2022/04/28 01:44:21;;;;;;;5.05;2.80;;;;;;;5.92;68.79;102398.66;1704390;82;21070;-84
2022/04/28 01:46:48;;;;;;;7.65;3.22;;;;;;;5.91;68.81;102395.55;1694286;83;21848;-85
2022/04/28 01:49:14;;;;;;;9.53;2.77;;;;;;;5.91;68.91;102392.94;1707087;83;21073;-85
2022/04/28 01:57:15;;;;;;;8.28;3.33;;;;;;;5.85;68.97;102390.77;1705726;83;21122;-84
2022/04/28 01:59:43;;;;;;;5.67;2.90;;;;;;;5.81;69.15;102393.97;1716374;83;21676;-84
2022/04/28 02:02:10;;;;;;;7.62;2.55;;;;;;;5.74;69.16;102381.67;1698348;82;21099;-86
2022/04/28 02:04:38;;;;;;;5.00;2.80;;;;;;;5.67;69.24;102381.66;1663208;83;21040;-84
2022/04/28 02:07:06;;;;;;;4.12;2.60;;;;;;;5.64;69.42;102380.13;1695809;83;21627;-84
2022/04/28 02:09:33;;;;;;;8.10;2.98;;;;;;;5.59;69.52;102380.19;1707612;83;21101;-84
2022/04/28 02:12:00;;;;;;;7.62;2.83;;;;;;;5.59;69.75;102387.65;1695983;83;21903;-83
2022/04/28 02:14:27;;;;;;;6.83;3.08;;;;;;;5.62;69.96;102387.84;1701914;83;21150;-86
2022/04/28 02:16:54;;;;;;;6.03;3.27;;;;;;;5.65;70.16;102384.56;1717317;83;21099;-84
2022/04/28 02:19:24;;;;;;;10.08;3.87;;;;;;;5.63;70.07;102390.05;1705918;83;21136;-84
2022/04/28 02:21:52;;;;;;;9.63;4.25;;;;;;;5.62;70.17;102391.77;1713937;83;22131;-86
2022/04/28 02:24:19;;;;;;;6.35;4.28;;;;;;;5.62;70.29;102402.21;1709882;83;21815;-84
2022/04/28 02:26:46;;;;;;;9.23;4.75;;;;;;;5.62;70.33;102392.17;1699399;83;20975;-86
2022/04/28 02:29:13;;;;;;;12.25;4.70;;;;;;;5.62;70.44;102393.48;1687020;83;21080;-84
2022/04/28 02:31:39;;;;;;;8.50;4.33;;;;;;;5.63;70.41;102390.05;1695305;83;21082;-84
2022/04/28 02:34:06;;;;;;;8.85;4.05;;;;;;;5.59;70.33;102387.65;1681792;83;21073;-84
2022/04/28 02:36:35;;;;;;;13.72;4.47;;;;;;;5.57;70.32;102381.78;1693307;83;21776;-83
2022/04/28 02:39:02;;;;;;;12.95;4.87;;;;;;;5.52;70.29;102383.15;1693678;83;21615;-84
2022/04/28 02:41:29;;;;;;;9.40;4.65;;;;;;;5.50;70.38;102387.36;1699063;83;21130;-84
2022/04/28 02:43:56;;;;;;;12.65;4.90;;;;;;;5.47;70.48;102381.53;1703986;82;21132;-84
2022/04/28 02:46:23;;;;;;;11.05;4.75;;;;;;;5.45;70.48;102381.41;1706786;83;21086;-84
2022/04/28 02:48:54;;;;;;;11.28;4.92;;;;;;;5.45;70.55;102384.43;1695432;83;21774;-84
2022/04/28 02:51:26;;;;;;;9.53;4.35;;;;;;;5.48;70.58;102383.73;1703092;83;21071;-85
2022/04/28 02:53:53;;;;;;;14.03;5.97;;;;;;;5.53;70.76;102378.45;1705871;82;21134;-84
2022/04/28 02:56:20;;;;;;;12.60;5.80;;;;;;;5.58;70.82;102375.37;1702511;82;21086;-84
2022/04/28 02:58:48;;;;;;;9.00;5.08;;;;;;;5.62;70.85;102370.86;1710604;83;21172;-85
2022/04/28 03:01:15;;;;;;;9.30;5.62;;;;;;;5.63;70.59;102375.30;1684956;83;21790;-85
2022/04/28 03:03:42;;;;;;;11.75;5.37;;;;;;;5.60;70.52;102376.38;1668118;81;21095;-86
2022/04/28 03:11:41;;;;;;;9.98;6.05;;;;;;;5.73;70.91;102383.39;1624888;86;21164;-85
2022/04/28 03:14:18;;;;;;;15.75;5.72;;;;;;;5.81;70.98;102388.75;1657887;84;22260;-85
2022/04/28 03:16:43;;;;;;;9.78;6.08;;;;;;;5.85;70.95;102390.77;1664294;84;21590;-84
2022/04/28 03:19:10;;;;;;;10.45;5.72;;;;;;;5.90;70.94;102389.80;1674894;84;21083;-85
2022/04/28 03:21:42;;;;;;;13.78;6.35;;;;;;;5.90;70.87;102383.27;1679369;84;21055;-85
2022/04/28 03:24:10;;;;;;;12.13;7.12;;;;;;;5.90;70.95;102380.66;1685242;84;21074;-85
2022/04/28 03:26:39;;;;;;;11.10;6.47;;;;;;;5.95;71.05;102384.55;1644953;86;21694;-84
2022/04/28 03:29:06;;;;;;;10.13;6.20;;;;;;;5.99;71.04;102385.26;1653847;85;21165;-85
2022/04/28 03:31:33;;;;;;;16.10;7.15;;;;;;;5.99;71.04;102382.64;1657990;84;21069;-85
2022/04/28 03:33:59;;;;;;;12.82;7.00;;;;;;;5.97;71.01;102385.55;1651371;85;21588;-85
2022/04/28 03:36:50;;;;;;;11.15;6.53;;;;;;;5.98;70.99;102385.14;1657023;85;21166;-86
2022/04/28 03:39:17;;;;;;;15.68;7.30;;;;;;;5.93;70.90;102388.72;1619036;85;22763;-85
2022/04/28 03:41:44;;;;;;;14.10;7.03;;;;;;;5.92;70.94;102389.92;1688037;84;21101;-85
2022/04/28 03:44:11;;;;;;;15.03;7.45;;;;;;;5.93;71.04;102390.03;1677653;84;21081;-85
2022/04/28 03:46:38;;;;;;;14.65;7.25;;;;;;;5.91;70.99;102394.62;1677664;83;21457;-85
2022/04/28 03:49:05;;;;;;;14.63;7.08;;;;;;;5.89;70.96;102394.50;1685200;84;21120;-86
2022/04/28 03:51:31;;;;;;;16.57;7.37;;;;;;;5.90;70.99;102397.64;1666354;84;22723;-86
2022/04/28 03:54:00;;;;;;;15.88;7.37;;;;;;;5.93;70.99;102398.25;1642127;86;21083;-86
2022/04/28 03:56:31;;;;;;;16.02;7.05;;;;;;;5.94;71.01;102405.30;1659734;85;21086;-85
2022/04/28 03:58:59;;;;;;;13.45;7.37;;;;;;;6.04;71.13;102405.17;1681285;83;21153;-87
2022/04/28 04:01:28;;;;;;;13.83;6.75;;;;;;;6.10;70.93;102402.08;1713321;82;21621;-86
2022/04/28 04:03:54;;;;;;;13.55;6.80;;;;;;;6.15;70.98;102404.62;1714332;81;23007;-85
2022/04/28 04:06:22;;;;;;;15.72;6.62;;;;;;;6.19;70.83;102405.33;1674119;83;22063;-86
2022/04/28 04:08:51;;;;;;;15.93;7.25;;;;;;;6.23;70.84;102407.34;1678975;84;21089;-86
2022/04/28 04:11:20;;;;;;;16.32;7.58;;;;;;;6.28;70.76;102404.66;1706631;83;21993;-86
2022/04/28 04:13:46;;;;;;;12.30;6.80;;;;;;;6.25;70.58;102390.09;1712199;83;21068;-87
2022/04/28 04:16:17;;;;;;;11.83;7.45;;;;;;;6.36;70.50;102401.27;1682192;83;21118;-85
2022/04/28 04:18:46;;;;;;;13.43;6.97;;;;;;;6.40;70.50;102409.81;1700388;83;21160;-84
2022/04/28 04:21:15;;;;;;;10.65;6.78;;;;;;;6.41;70.37;102410.34;1700336;83;21559;-84
2022/04/28 04:23:45;;;;;;;15.40;8.05;;;;;;;6.45;70.34;102411.05;1708460;83;21056;-85
2022/04/28 04:26:11;;;;;;;15.18;7.33;;;;;;;6.52;70.35;102409.77;1693177;82;22387;-85
2022/04/28 04:28:38;;;;;;;16.45;6.78;;;;;;;6.57;70.17;102410.59;1713004;83;22623;-87
2022/04/28 04:33:51;;;;;;;14.18;5.67;;;;;;;6.74;70.13;102413.45;1686116;83;21089;-85
2022/04/28 04:36:18;;;;;;;9.55;5.22;;;;;;;6.81;69.89;102416.58;1690825;83;21093;-86
2022/04/28 04:38:47;;;;;;;10.15;4.35;;;;;;;6.90;69.49;102416.26;1712555;81;21097;-88
2022/04/28 04:41:20;;;;;;;8.23;5.17;;;;;;;6.99;69.25;102416.87;1705989;81;21902;-84
2022/04/28 04:43:49;;;;;;;13.90;9.03;;;;;;;7.07;69.03;102413.86;1715853;81;21144;-83
2022/04/28 04:46:24;;;;;;;7.50;4.22;;;;;;;7.18;68.87;102418.98;1695977;82;21145;-85
2022/04/28 04:48:50;;;;;;;8.78;5.42;;;;;;;7.34;68.66;102409.53;1701688;81;21108;-84
2022/04/28 04:51:20;;;;;;;6.55;3.80;;;;;;;7.63;68.42;102420.97;1659983;83;21125;-85
2022/04/28 04:53:50;;;;;;;6.83;3.95;;;;;;;8.09;68.47;102419.52;1716320;81;21901;-86
2022/04/28 04:56:16;;;;;;;13.48;7.70;;;;;;;8.64;68.32;102418.47;1713054;83;21079;-87
2022/04/28 04:58:43;;;;;;;8.33;4.40;;;;;;;10.50;69.85;102411.75;1698814;83;21133;-84
2022/04/28 05:01:10;;;;;;;6.83;3.67;;;;;;;12.63;68.90;102406.90;1693260;83;22179;-84
2022/04/28 05:03:37;;;;;;;6.25;3.40;;;;;;;14.33;66.24;102403.94;1683083;83;21142;-86
2022/04/28 05:06:04;;;;;;;7.78;3.15;;;;;;;14.77;63.24;102404.22;1691993;82;21813;-86
2022/04/28 05:08:31;;;;;;;5.55;3.02;;;;;;;14.89;61.18;102402.84;1692438;82;21132;-86
2022/04/28 05:10:59;;;;;;;8.73;5.97;;;;;;;15.13;60.68;102410.70;1688987;82;21074;-87
2022/04/28 05:13:26;;;;;;;10.98;6.00;;;;;;;16.31;60.92;102398.78;1689946;82;21695;-87
2022/04/28 05:15:56;;;;;;;8.55;5.25;;;;;;;17.60;58.98;102394.06;1704707;82;21068;-87
2022/04/28 05:18:23;;;;;;;6.83;4.58;;;;;;;18.13;57.53;102399.20;1696384;82;21621;-87
2022/04/28 05:20:50;;;;;;;8.03;4.75;;;;;;;18.70;55.69;102403.85;1695910;81;21603;-87
2022/04/28 05:23:19;;;;;;;5.45;3.45;;;;;;;18.22;53.56;102402.05;1687532;82;21128;-87
2022/04/28 05:25:47;;;;;;;9.20;3.12;;;;;;;17.87;51.57;102408.91;1694618;82;21767;-86
2022/04/28 05:28:14;;;;;;;6.95;3.60;;;;;;;16.86;51.18;102406.95;1708232;83;21201;-85
2022/04/28 05:30:41;;;;;;;7.47;3.30;;;;;;;15.94;50.78;102405.73;1703779;82;21781;-86
2022/04/28 05:33:08;;;;;;;6.53;2.85;;;;;;;15.00;50.85;102415.09;1677671;83;21128;-86
2022/04/28 05:35:38;;;;;;;9.48;3.52;;;;;;;14.15;50.99;102414.75;1695824;82;21085;-85
2022/04/28 05:38:05;;;;;;;9.60;3.45;;;;;;;13.48;51.83;102419.71;1693996;82;21747;-86
2022/04/28 05:40:31;;;;;;;7.45;3.45;;;;;;;12.94;51.81;102424.08;1699056;82;21411;-86
2022/04/28 05:45:47;;;;;;;9.53;3.30;;;;;;;11.87;52.08;102424.62;1670451;83;21544;-86
2022/04/28 05:48:15;;;;;;;9.65;3.42;;;;;;;11.30;52.81;102432.91;1698569;82;21545;-86
2022/04/28 05:50:45;;;;;;;9.70;3.30;;;;;;;11.03;53.49;102433.33;1703656;82;22104;-85
2022/04/28 05:53:14;;;;;;;8.20;3.40;;;;;;;10.78;53.60;102436.46;1646898;83;22539;-86
2022/04/28 05:55:46;;;;;;;9.85;4.12;;;;;;;10.48;53.83;102443.27;1685699;83;21767;-86
2022/04/28 05:58:10;;;;;;;10.65;3.27;;;;;;;10.23;54.06;102444.98;1695807;82;21085;-86
2022/04/28 06:00:36;;;;;;;6.70;3.25;;;;;;;10.05;54.24;102444.88;1700972;82;21097;-86
2022/04/28 06:03:03;;;;;;;4.45;2.70;;;;;;;9.86;54.37;102449.55;1679467;83;21080;-86
2022/04/28 06:05:32;;;;;;;5.40;2.45;;;;;;;9.76;54.62;102448.95;1722666;81;21021;-87
2022/04/28 06:07:59;;;;;;;7.40;2.50;;;;;;;9.55;54.53;102452.19;1691130;82;21919;-86
2022/04/28 06:10:26;;;;;;;6.08;2.58;;;;;;;9.31;54.88;102447.78;1689138;82;21116;-86
2022/04/28 06:12:53;;;;;;;5.30;2.65;;;;;;;9.23;55.29;102451.67;1687239;82;21089;-86
2022/04/28 06:15:20;;;;;;;8.58;2.50;;;;;;;9.18;55.55;102455.36;1689810;83;21045;-86
2022/04/28 06:17:46;;;;;;;6.10;2.15;;;;;;;9.10;55.72;102459.24;1698610;83;21551;-86
2022/04/28 06:20:14;;;;;;;7.30;2.67;;;;;;;9.06;55.83;102451.59;1704259;82;21791;-87
2022/04/28 06:22:41;;;;;;;4.92;2.40;;;;;;;9.03;55.90;102455.75;1695630;83;23059;-86
2022/04/28 06:27:59;;;;;;;9.73;2.85;;;;;;;8.78;56.00;102445.12;1622789;83;21042;-85
2022/04/28 06:30:26;;;;;;;5.30;2.83;;;;;;;8.76;56.29;102455.94;1655138;84;21103;-85
2022/04/28 06:33:00;;;;;;;6.60;2.67;;;;;;;8.74;56.50;102456.26;1680269;83;21822;-84
2022/04/28 06:35:25;;;;;;;6.83;2.98;;;;;;;8.70;56.64;102455.17;1637682;84;21289;-85
2022/04/28 06:37:52;;;;;;;6.92;2.67;;;;;;;8.73;56.74;102455.36;1657373;84;21126;-85
2022/04/28 06:40:19;;;;;;;4.35;2.40;;;;;;;8.77;56.81;102462.12;1683573;83;21360;-85
2022/04/28 06:42:50;;;;;;;5.10;2.40;;;;;;;8.72;56.95;102456.58;1693461;81;21180;-85
2022/04/28 06:45:14;;;;;;;5.67;2.55;;;;;;;8.81;57.06;102457.55;1693703;82;21797;-86
2022/04/28 06:47:41;;;;;;;9.35;3.05;;;;;;;8.78;56.59;102458.25;1702494;81;21477;-86
2022/04/28 06:50:09;;;;;;;7.60;2.60;;;;;;;8.69;56.49;102459.94;1707888;83;21114;-86
2022/04/28 06:52:40;;;;;;;6.53;2.80;;;;;;;8.72;56.85;102456.16;1703558;81;21493;-86
2022/04/28 06:55:10;;;;;;;5.83;3.02;;;;;;;8.80;56.93;102457.93;1695899;81;21520;-86
2022/04/28 06:57:38;;;;;;;10.03;2.70;;;;;;;8.82;56.88;102464.20;1688977;82;21885;-86
2022/04/28 07:00:06;;;;;;;4.17;2.17;;;;;;;8.85;56.91;102471.34;1698168;81;21114;-86
2022/04/28 07:02:33;;;;;;;8.65;2.70;;;;;;;8.83;56.86;102470.36;1697225;82;21080;-86
2022/04/28 07:05:02;;;;;;;4.00;2.27;;;;;;;8.83;56.82;102469.05;1666087;83;22213;-86
2022/04/28 07:07:28;;;;;;;7.95;3.05;;;;;;;8.83;56.91;102472.56;1707223;81;21149;-86
2022/04/28 07:09:55;;;;;;;10.78;3.22;;;;;;;8.84;56.92;102477.02;1667890;83;21749;-86
2022/04/28 07:12:22;;;;;;;8.10;2.95;;;;;;;8.88;57.04;102476.80;1698176;81;21018;-86
2022/04/28 07:14:49;;;;;;;7.17;3.10;;;;;;;8.94;57.00;102478.05;1684897;82;21111;-86
2022/04/28 07:17:16;;;;;;;10.03;3.45;;;;;;;8.94;56.82;102477.16;1702561;81;21085;-86
2022/04/28 07:19:45;;;;;;;7.12;2.75;;;;;;;8.93;56.93;102477.56;1691843;82;21004;-86
2022/04/28 07:22:13;;;;;;;6.40;3.25;;;;;;;8.96;57.04;102482.09;1694867;81;21957;-86
2022/04/28 07:24:40;;;;;;;8.45;3.27;;;;;;;8.98;56.93;102483.08;1692432;83;21564;-86
2022/04/28 07:27:08;;;;;;;11.43;3.55;;;;;;;8.96;56.79;102484.71;1696456;81;21199;-86
2022/04/28 07:29:35;;;;;;;8.18;3.83;;;;;;;8.94;56.92;102486.34;1689346;82;21148;-86
2022/04/28 07:32:03;;;;;;;9.78;3.60;;;;;;;8.99;57.01;102483.59;1698027;81;21105;-86
2022/04/28 07:34:32;;;;;;;11.25;3.70;;;;;;;9.05;56.98;102486.98;1688058;83;22140;-87
2022/04/28 07:36:59;;;;;;;6.92;3.52;;;;;;;9.11;56.65;102486.02;1691069;82;21718;-86
2022/04/28 07:39:25;;;;;;;9.50;3.12;;;;;;;9.16;56.64;102489.84;1692424;82;21114;-86
2022/04/28 07:41:52;;;;;;;11.08;3.60;;;;;;;9.20;56.30;102492.24;1696740;82;21088;-86
2022/04/28 07:44:21;;;;;;;8.43;3.25;;;;;;;9.15;56.03;102488.02;1696884;81;21630;-87
2022/04/28 07:46:48;;;;;;;11.08;3.22;;;;;;;9.17;56.08;102491.63;1699319;83;22608;-86
2022/04/28 07:49:15;;;;;;;10.43;3.52;;;;;;;9.20;55.73;102493.14;1688454;82;22338;-86
2022/04/28 07:51:42;;;;;;;7.50;2.95;;;;;;;9.19;55.37;102493.94;1685520;84;21133;-86
2022/04/28 07:54:09;;;;;;;17.62;3.77;;;;;;;9.22;55.15;102495.86;1683165;84;21250;-86
2022/04/28 07:56:36;;;;;;;12.37;4.20;;;;;;;9.20;54.56;102495.77;1682816;84;21157;-86
2022/04/28 07:59:07;;;;;;;7.20;2.17;;;;;;;9.17;54.17;102500.83;1680897;84;22066;-85
2022/04/28 08:01:34;;;;;;;11.38;2.77;;;;;;;9.14;53.84;102497.63;1708969;81;21097;-86
2022/04/28 08:04:00;;;;;;;8.25;2.58;;;;;;;9.12;53.51;102503.20;1692086;82;21078;-85
2022/04/28 08:06:27;;;;;;;5.35;2.10;;;;;;;9.15;52.97;102494.58;1699525;81;21646;-85
2022/04/28 08:08:54;;;;;;;13.78;3.60;;;;;;;9.12;52.23;102501.88;1709088;81;21054;-85
2022/04/28 08:11:21;;;;;;;9.00;3.20;;;;;;;9.10;52.50;102506.53;1695239;82;22963;-86
2022/04/28 08:13:49;;;;;;;6.85;2.87;;;;;;;9.09;52.89;102503.00;1698400;83;21072;-85
2022/04/28 08:16:16;;;;;;;5.35;2.70;;;;;;;9.13;52.16;102504.09;1699680;81;21167;-85
2022/04/28 08:18:43;;;;;;;3.67;1.80;;;;;;;9.15;51.60;102503.77;1694249;81;21164;-86
2022/04/28 08:21:10;;;;;;;10.23;2.10;;;;;;;9.13;50.44;102511.97;1711863;81;21081;-86
2022/04/28 08:23:37;;;;;;;4.97;1.90;;;;;;;9.12;49.72;102504.52;1697528;81;21797;-86
2022/04/28 08:26:08;;;;;;;2.58;1.50;;;;;;;9.17;49.20;102500.83;1694843;81;21122;-86
2022/04/28 08:28:35;;;;;;;9.30;1.98;;;;;;;9.20;48.00;102508.90;1694398;81;21064;-86
2022/04/28 08:31:01;;;;;;;3.33;1.40;;;;;;;9.19;47.58;102507.49;1692945;82;21136;-86
2022/04/28 08:33:28;;;;;;;6.03;1.45;;;;;;;9.18;46.43;102504.35;1672614;83;21128;-86
2022/04/28 08:35:55;;;;;;;51.00;10.58;;;;;;;9.18;45.96;102505.28;1697319;81;22535;-85
2022/04/28 08:38:24;;;;;;;7.95;2.40;;;;;;;9.13;45.79;102496.21;1701221;81;21081;-85
2022/04/28 08:40:56;;;;;;;6.70;2.58;;;;;;;9.25;46.09;102506.53;1691360;82;21607;-85
2022/04/28 08:43:22;;;;;;;8.58;1.80;;;;;;;9.33;46.03;102502.64;1694437;82;21034;-86
2022/04/28 08:48:40;;;;;;;4.50;1.70;;;;;;;9.42;46.03;102499.62;1692506;81;21899;-87
2022/04/28 08:51:11;;;;;;;7.45;1.95;;;;;;;9.44;45.74;102490.09;1682459;83;21064;-86
2022/04/28 08:53:39;;;;;;;6.87;1.40;;;;;;;9.41;45.52;102497.41;1683364;82;21072;-86
2022/04/28 08:56:06;;;;;;;9.63;1.87;;;;;;;9.44;45.59;102493.66;1681997;82;21346;-86
2022/04/28 08:58:33;;;;;;;4.47;2.37;;;;;;;9.49;45.46;102493.48;1687594;82;21379;-86
2022/04/28 09:00:59;;;;;;;6.53;2.30;;;;;;;9.56;45.26;102492.55;1688198;82;21979;-86
2022/04/28 09:03:26;;;;;;;6.87;1.80;;;;;;;9.59;45.31;102497.58;1696851;82;21454;-86
2022/04/28 09:05:53;;;;;;;5.60;1.82;;;;;;;9.61;45.20;102492.38;1690014;82;21109;-86
2022/04/28 09:08:20;;;;;;;7.12;1.47;;;;;;;9.64;45.25;102499.14;1691593;82;21564;-86
2022/04/28 09:10:47;;;;;;;4.92;1.70;;;;;;;9.60;45.07;102494.53;1642351;81;21551;-86
2022/04/28 09:15:59;;;;;;;6.17;1.90;;;;;;;9.72;44.89;102503.09;1670917;82;21069;-86
2022/04/28 09:18:26;;;;;;;5.65;1.35;;;;;;;9.72;44.76;102497.45;1705239;81;21128;-86
2022/04/28 09:20:52;;;;;;;9.88;1.77;;;;;;;9.75;44.90;102500.65;1688749;82;21077;-86
2022/04/28 09:23:21;;;;;;;4.92;1.45;;;;;;;9.78;45.01;102502.53;1690802;82;21121;-86
2022/04/28 09:25:48;;;;;;;7.55;1.65;;;;;;;9.82;44.98;102503.23;1695312;81;21762;-86
2022/04/28 09:28:15;;;;;;;2.42;1.27;;;;;;;9.79;45.03;102504.36;1693200;83;21188;-85
2022/04/28 09:30:45;;;;;;;3.95;1.40;;;;;;;9.79;45.10;102502.62;1697402;82;21758;-86
2022/04/28 09:33:13;;;;;;;3.98;1.65;;;;;;;9.83;45.06;102499.34;1688184;82;21144;-86
2022/04/28 09:35:55;;;;;;;17.45;1.75;;;;;;;9.86;45.13;102498.21;1701892;81;21082;-85
2022/04/28 09:38:23;;;;;;;3.65;1.90;;;;;;;9.86;45.07;102503.47;1692222;82;21982;-85
2022/04/28 09:43:38;;;;;;;3.50;1.30;;;;;;;9.84;45.06;102498.95;1697781;81;21451;-86
2022/04/28 09:46:07;;;;;;;6.85;1.87;;;;;;;9.87;45.26;102510.94;1688721;82;21093;-85
2022/04/28 09:48:33;;;;;;;2.42;1.30;;;;;;;9.83;45.03;102514.23;1698899;81;21132;-86
2022/04/28 09:51:04;;;;;;;2.37;1.30;;;;;;;9.77;44.97;102505.58;1707148;81;21720;-85
2022/04/28 09:53:32;;;;;;;5.40;1.75;;;;;;;9.78;45.40;102500.84;1693867;82;21043;-85
2022/04/28 09:56:02;;;;;;;2.92;1.77;;;;;;;9.84;45.35;102497.64;1680287;83;22410;-85
2022/04/28 09:58:29;;;;;;;4.80;1.60;;;;;;;9.89;45.47;102501.02;1679925;83;21085;-84
2022/04/28 10:01:03;;;;;;;3.45;1.95;;;;;;;9.98;45.64;102499.72;1702725;82;21475;-85
2022/04/28 10:03:33;;;;;;;4.17;2.05;;;;;;;10.01;45.47;102503.84;1680514;84;21838;-85
2022/04/28 10:06:05;;;;;;;7.30;2.35;;;;;;;9.97;45.58;102500.55;1663560;84;21275;-85
2022/04/28 10:08:34;;;;;;;5.50;2.35;;;;;;;9.97;45.70;102499.23;1655674;84;21018;-85
2022/04/28 10:11:07;;;;;;;4.37;2.20;;;;;;;10.01;45.63;102497.27;1681355;84;21562;-85
2022/04/28 10:13:33;;;;;;;7.33;2.23;;;;;;;10.06;45.88;102501.03;1684098;84;21065;-86
2022/04/28 10:16:04;;;;;;;7.50;2.70;;;;;;;10.04;45.76;102502.28;1680455;84;21853;-86
2022/04/28 10:18:35;;;;;;;3.20;1.85;;;;;;;10.00;46.01;102496.33;1680625;83;21714;-85
2022/04/28 10:21:03;;;;;;;11.12;2.47;;;;;;;10.02;46.11;102505.63;1685394;83;21126;-86
2022/04/28 10:35:07;;;;;;;6.03;1.75;;;;;;;10.23;46.58;102504.20;1680582;84;21057;-86
2022/04/28 10:37:38;;;;;;;12.47;2.10;;;;;;;10.30;46.43;102500.16;1646524;84;21208;-86
2022/04/28 10:40:07;;;;;;;10.23;2.15;;;;;;;10.27;46.07;102506.59;1672028;83;21154;-86
2022/04/28 10:42:39;;;;;;;4.10;1.62;;;;;;;10.20;46.14;102499.17;1674689;83;21784;-86
2022/04/28 10:45:19;;;;;;;10.35;3.25;;;;;;;10.17;46.28;102499.00;1665732;83;21148;-86
2022/04/28 10:47:47;;;;;;;6.75;2.22;;;;;;;10.27;46.51;102498.70;1649725;84;21153;-86
2022/04/28 10:50:27;;;;;;;12.63;4.17;;;;;;;10.34;46.05;102499.95;1661023;83;21170;-86
2022/04/28 10:52:56;;;;;;;6.47;2.27;;;;;;;10.33;46.18;102502.10;1657134;84;21626;-86
2022/04/28 10:55:26;;;;;;;6.37;2.90;;;;;;;10.39;46.07;102508.58;1654674;84;21700;-86
2022/04/28 10:57:54;;;;;;;7.50;1.98;;;;;;;10.42;46.22;102500.86;1646535;85;21109;-86
2022/04/28 11:00:33;;;;;;;8.08;1.90;;;;;;;10.50;46.13;102497.32;1674185;84;20992;-85
2022/04/28 11:03:00;;;;;;;8.60;2.20;;;;;;;10.55;46.09;102506.38;1643283;85;21020;-86
2022/04/28 11:05:33;;;;;;;5.03;2.25;;;;;;;10.52;45.75;102507.52;1655767;84;21946;-86
2022/04/28 11:08:00;;;;;;;3.72;1.80;;;;;;;10.53;45.68;102509.34;1622575;86;22266;-86
2022/04/28 11:10:27;;;;;;;7.00;2.33;;;;;;;10.48;45.47;102502.50;1640820;84;21629;-86
2022/04/28 11:12:55;;;;;;;5.10;1.87;;;;;;;10.45;45.58;102497.48;1708816;83;21079;-86
2022/04/28 11:15:25;;;;;;;4.75;1.60;;;;;;;10.46;45.54;102504.15;1712466;83;21183;-87
2022/04/28 11:17:52;;;;;;;7.58;2.00;;;;;;;10.45;45.41;102502.74;1696365;82;21065;-86
2022/04/28 11:20:21;;;;;;;4.70;1.80;;;;;;;10.46;45.33;102490.98;1698070;82;22586;-86
2022/04/28 11:22:55;;;;;;;8.18;2.35;;;;;;;10.49;45.34;102496.42;1697955;82;21101;-85
2022/04/28 11:25:23;;;;;;;7.25;2.20;;;;;;;10.54;45.30;102504.55;1670346;83;21093;-87
2022/04/28 11:27:52;;;;;;;7.22;2.20;;;;;;;10.57;45.13;102493.30;1707736;83;21488;-85
2022/04/28 11:30:21;;;;;;;10.98;1.70;;;;;;;10.61;45.09;102490.89;1716443;82;21667;-86
2022/04/28 11:32:59;;;;;;;5.58;1.75;;;;;;;10.63;44.80;102503.73;1712552;82;21760;-86
2022/04/28 11:35:31;;;;;;;4.72;2.50;;;;;;;10.65;44.88;102495.91;1692728;83;20947;-86
2022/04/28 11:38:01;;;;;;;5.62;2.05;;;;;;;10.71;44.82;102494.91;1710123;83;21322;-87
2022/04/28 11:40:35;;;;;;;4.53;1.57;;;;;;;10.76;44.75;102506.60;1704192;83;21151;-86
2022/04/28 11:43:03;;;;;;;7.80;2.40;;;;;;;10.70;44.32;102507.61;1688020;83;21131;-85
2022/04/28 11:45:32;;;;;;;5.65;1.65;;;;;;;10.66;44.66;102510.88;1686825;81;21857;-87
2022/04/28 11:48:07;;;;;;;7.25;2.02;;;;;;;10.63;44.52;102492.30;1685052;83;21098;-86
2022/04/28 11:50:34;;;;;;;3.12;1.35;;;;;;;10.68;44.64;102503.56;1702867;82;21120;-86
2022/04/28 11:53:05;;;;;;;5.47;2.27;;;;;;;10.75;44.62;102505.20;1667072;83;21563;-85
2022/04/28 11:55:40;;;;;;;6.97;2.00;;;;;;;10.78;44.56;102494.41;1696805;83;21130;-86
2022/04/28 11:58:08;;;;;;;4.30;1.95;;;;;;;10.76;44.51;102494.75;1683839;83;21822;-86
2022/04/28 12:00:41;;;;;;;6.70;2.12;;;;;;;10.78;44.79;102492.20;1693975;84;21482;-85
2022/04/28 12:03:09;;;;;;;6.28;1.60;;;;;;;10.78;44.43;102498.78;1650161;86;21079;-86
2022/04/28 12:05:36;;;;;;;5.28;2.20;;;;;;;10.79;44.26;102495.30;1681288;83;21192;-85
2022/04/28 12:08:03;;;;;;;3.67;1.82;;;;;;;10.80;44.39;102490.13;1634124;85;21152;-86
2022/04/28 12:16:11;;;;;;;7.60;2.47;;;;;;;10.88;44.10;102489.20;1647646;85;21153;-86
2022/04/28 12:21:27;;;;;;;12.40;3.52;;;;;;;10.93;44.37;102490.34;1701722;82;22115;-85
2022/04/28 12:23:58;;;;;;;5.03;2.08;;;;;;;10.90;43.65;102483.59;1704159;83;22658;-86